Time;durP1;ratioP1;P1;durP2;ratioP2;P2;SDS_P1;SDS_P2;PMS_P1;PMS_P2;Temp;Humidity;BMP_temperature;BMP_pressure;BME280_temperature;BME280_humidity;BME280_pressure;Samples;Min_cycle;Max_cycle;Signal;HPM_P1;HPM_P2
2021/07/12 00:02:23;;;;;;;9.73;8.90;;;17.30;99.90;;;;;;5033208;28;20161;-72
2021/07/12 00:04:48;;;;;;;9.87;8.93;;;17.30;99.90;;;;;;5033337;28;20165;-72
2021/07/12 00:07:14;;;;;;;8.70;8.00;;;17.20;99.90;;;;;;5033293;28;20157;-72
2021/07/12 00:09:39;;;;;;;9.60;8.60;;;17.20;99.90;;;;;;5039836;28;20180;-72
2021/07/12 00:12:05;;;;;;;11.63;9.33;;;17.20;99.90;;;;;;5053005;28;20148;-72
2021/07/12 00:14:31;;;;;;;9.80;7.53;;;17.10;99.90;;;;;;5052978;28;20153;-72
2021/07/12 00:16:56;;;;;;;9.90;9.00;;;17.10;99.90;;;;;;5052938;28;20490;-72
2021/07/12 00:19:22;;;;;;;9.20;8.40;;;17.10;99.90;;;;;;5053109;28;20157;-72
2021/07/12 00:21:47;;;;;;;8.60;7.80;;;17.10;99.90;;;;;;5053569;28;20184;-72
2021/07/12 00:24:13;;;;;;;9.67;8.70;;;17.10;99.90;;;;;;5053005;28;20222;-72
2021/07/12 00:26:39;;;;;;;10.07;9.07;;;17.10;99.90;;;;;;5052089;28;20170;-72
2021/07/12 00:29:04;;;;;;;18.47;11.20;;;17.10;99.90;;;;;;5040146;28;20860;-72
2021/07/12 00:31:30;;;;;;;11.30;10.10;;;17.10;99.90;;;;;;5050491;28;20263;-72
2021/07/12 00:33:56;;;;;;;13.33;9.67;;;17.00;99.90;;;;;;5052824;28;20161;-72
2021/07/12 00:36:21;;;;;;;13.23;9.23;;;17.00;99.90;;;;;;5053050;28;20192;-72
2021/07/12 00:38:47;;;;;;;10.67;9.57;;;17.00;99.90;;;;;;5052664;28;20156;-72
2021/07/12 00:41:12;;;;;;;12.07;10.63;;;16.90;99.90;;;;;;5052577;28;20238;-73
2021/07/12 00:43:38;;;;;;;11.30;10.20;;;16.90;99.90;;;;;;5051557;28;20180;-73
2021/07/12 00:46:08;;;;;;;15.93;13.57;;;16.90;99.90;;;;;;5052548;28;20258;-73
2021/07/12 00:48:34;;;;;;;15.00;12.13;;;16.90;99.90;;;;;;5052412;28;20487;-72
2021/07/12 00:51:00;;;;;;;13.17;11.87;;;16.80;99.90;;;;;;5052600;28;20496;-72
2021/07/12 00:53:26;;;;;;;12.03;10.83;;;16.80;99.90;;;;;;5052408;28;20880;-72
2021/07/12 00:55:52;;;;;;;11.03;10.07;;;16.80;99.90;;;;;;5052063;28;20929;-72
2021/07/12 00:58:21;;;;;;;17.13;10.30;;;16.80;99.90;;;;;;5043991;28;20411;-72
2021/07/12 01:00:49;;;;;;;11.50;10.50;;;16.70;99.90;;;;;;5040045;28;20583;-72
2021/07/12 01:03:16;;;;;;;10.77;9.27;;;16.70;99.90;;;;;;5038025;28;20415;-72
2021/07/12 01:05:42;;;;;;;10.60;9.67;;;16.70;99.90;;;;;;5032606;28;20399;-72
2021/07/12 01:08:08;;;;;;;12.43;10.10;;;16.70;99.90;;;;;;5032345;28;20478;-72
2021/07/12 01:10:34;;;;;;;11.33;10.30;;;16.70;99.90;;;;;;5032339;28;20807;-72
2021/07/12 01:13:26;;;;;;;11.60;10.60;;;16.70;99.90;;;;;;5032315;28;20168;-73
2021/07/12 01:16:32;;;;;;;9.73;8.83;;;16.60;99.90;;;;;;5031439;28;20484;-73
2021/07/12 01:27:40;;;;;;;10.50;9.40;;;16.60;99.90;;;;;;5069933;28;20516;-72
2021/07/12 01:30:32;;;;;;;10.70;9.83;;;16.50;99.90;;;;;;5068995;28;20406;-72
2021/07/12 01:33:10;;;;;;;12.40;10.97;;;16.50;99.90;;;;;;5069544;28;20420;-72
2021/07/12 01:38:47;;;;;;;12.33;10.20;;;16.40;99.90;;;;;;5069760;28;20520;-74
2021/07/12 01:41:29;;;;;;;12.07;10.87;;;16.40;99.90;;;;;;5070266;28;20886;-74
2021/07/12 01:46:50;;;;;;;11.03;10.10;;;16.40;99.90;;;;;;5069926;28;20504;-72
2021/07/12 01:49:29;;;;;;;10.83;9.93;;;16.40;99.90;;;;;;5069840;28;20385;-72
2021/07/12 01:52:08;;;;;;;11.47;10.47;;;16.40;99.90;;;;;;5060667;28;20429;-72
2021/07/12 01:54:45;;;;;;;12.03;11.03;;;16.40;99.90;;;;;;5049659;28;20751;-72
2021/07/12 01:57:32;;;;;;;12.00;10.93;;;16.40;99.90;;;;;;5051147;28;20390;-72
2021/07/12 02:02:39;;;;;;;14.10;11.30;;;16.40;99.90;;;;;;5070117;28;20520;-72
2021/07/12 02:05:11;;;;;;;12.47;11.27;;;16.40;99.90;;;;;;5070029;28;20386;-72
2021/07/12 02:07:37;;;;;;;11.43;10.43;;;16.40;99.90;;;;;;5069811;28;20382;-72
2021/07/12 02:10:06;;;;;;;11.43;10.40;;;16.40;99.90;;;;;;5051424;28;20464;-72
2021/07/12 02:12:33;;;;;;;12.27;11.17;;;16.40;99.90;;;;;;5050163;28;20379;-71
2021/07/12 02:15:01;;;;;;;12.53;11.43;;;16.40;99.90;;;;;;5049441;28;20383;-70
2021/07/12 02:17:28;;;;;;;12.50;11.40;;;16.30;99.90;;;;;;5049707;28;20402;-71
2021/07/12 02:19:58;;;;;;;13.10;11.80;;;16.30;99.90;;;;;;5049593;28;20382;-70
2021/07/12 02:22:24;;;;;;;12.07;10.97;;;16.30;99.90;;;;;;5049456;28;20477;-70
2021/07/12 02:24:52;;;;;;;13.20;12.03;;;16.30;99.90;;;;;;5049872;28;20391;-71
2021/07/12 02:27:21;;;;;;;11.90;10.87;;;16.30;99.90;;;;;;5051365;28;20438;-71
2021/07/12 02:29:48;;;;;;;13.97;12.67;;;16.20;99.90;;;;;;5069265;28;20412;-70
2021/07/12 02:32:13;;;;;;;12.43;11.33;;;16.20;99.90;;;;;;5069488;28;20394;-70
2021/07/12 02:34:40;;;;;;;14.23;11.40;;;16.20;99.90;;;;;;5069093;28;20891;-70
2021/07/12 02:37:05;;;;;;;13.10;11.80;;;16.20;99.90;;;;;;5069205;28;20183;-70
2021/07/12 02:39:33;;;;;;;12.37;11.30;;;16.20;99.90;;;;;;5069172;28;20471;-70
2021/07/12 02:42:01;;;;;;;12.03;10.93;;;16.10;99.90;;;;;;5068139;28;20190;-70
2021/07/12 02:44:29;;;;;;;12.27;11.17;;;16.10;99.90;;;;;;5069077;28;20390;-71
2021/07/12 02:46:55;;;;;;;13.07;11.87;;;16.10;99.90;;;;;;5069037;28;20883;-70
2021/07/12 02:49:20;;;;;;;13.90;12.10;;;16.10;99.90;;;;;;5069168;28;20477;-70
2021/07/12 02:51:52;;;;;;;13.53;12.43;;;16.10;99.90;;;;;;5068921;28;20181;-70
2021/07/12 02:54:22;;;;;;;12.23;11.20;;;16.10;99.90;;;;;;5068812;28;20164;-70
2021/07/12 02:56:48;;;;;;;12.77;11.67;;;16.00;99.90;;;;;;5069055;28;20394;-68
2021/07/12 02:59:15;;;;;;;12.33;11.33;;;16.00;99.90;;;;;;5049252;28;20443;-68
2021/07/12 03:01:41;;;;;;;12.80;11.60;;;16.00;99.90;;;;;;5049119;28;20458;-68
2021/07/12 03:04:06;;;;;;;14.57;13.17;;;15.90;99.90;;;;;;5048735;28;20412;-68
2021/07/12 03:06:32;;;;;;;13.47;12.17;;;15.90;99.90;;;;;;5048610;28;20148;-68
2021/07/12 03:09:17;;;;;;;12.97;11.83;;;15.90;99.90;;;;;;5048631;28;20172;-68
2021/07/12 03:14:31;;;;;;;16.40;14.13;;;15.90;99.90;;;;;;5069821;28;20508;-67
2021/07/12 03:16:58;;;;;;;14.40;13.17;;;15.90;99.90;;;;;;5060655;28;20434;-67
2021/07/12 03:19:30;;;;;;;13.80;12.53;;;15.90;99.90;;;;;;5049759;28;20391;-67
2021/07/12 03:21:58;;;;;;;14.73;13.37;;;15.90;99.90;;;;;;5049675;28;20387;-67
2021/07/12 03:24:26;;;;;;;14.00;12.60;;;15.90;99.90;;;;;;5049658;28;20379;-67
2021/07/12 03:26:53;;;;;;;12.87;11.67;;;15.90;99.90;;;;;;5050116;28;20391;-68
2021/07/12 03:29:20;;;;;;;14.00;12.70;;;15.90;99.90;;;;;;5069517;28;20386;-67
2021/07/12 03:31:46;;;;;;;12.60;11.47;;;15.90;99.90;;;;;;5049564;28;20933;-67
2021/07/12 03:34:13;;;;;;;13.77;12.47;;;15.90;99.90;;;;;;5049843;28;20458;-67
2021/07/12 03:36:43;;;;;;;15.00;13.50;;;15.90;99.90;;;;;;5049430;28;20153;-68
2021/07/12 03:39:08;;;;;;;15.77;14.27;;;15.90;99.90;;;;;;5049396;28;20398;-67
2021/07/12 03:41:35;;;;;;;17.10;14.60;;;15.90;99.90;;;;;;5049933;28;20749;-67
2021/07/12 03:44:02;;;;;;;15.60;14.27;;;15.90;99.90;;;;;;5069283;28;20156;-68
2021/07/12 03:46:27;;;;;;;16.63;15.10;;;15.90;99.90;;;;;;5069372;28;20428;-68
2021/07/12 03:48:53;;;;;;;16.87;15.27;;;15.90;99.90;;;;;;5069201;28;20444;-67
2021/07/12 03:51:22;;;;;;;16.30;14.77;;;15.90;99.90;;;;;;5056597;28;20179;-67
2021/07/12 03:53:48;;;;;;;16.70;15.10;;;15.90;99.90;;;;;;5049042;28;20187;-67
2021/07/12 03:56:13;;;;;;;17.50;15.77;;;15.90;99.90;;;;;;5049084;28;20505;-67
2021/07/12 03:58:39;;;;;;;16.50;15.00;;;15.90;99.90;;;;;;5063874;28;20199;-67
2021/07/12 04:01:05;;;;;;;17.50;15.90;;;15.90;99.90;;;;;;5069137;28;20236;-67
2021/07/12 04:03:31;;;;;;;19.33;16.13;;;16.00;99.90;;;;;;5068957;28;20628;-67
2021/07/12 04:05:57;;;;;;;16.87;15.30;;;16.00;99.90;;;;;;5068915;28;20398;-67
2021/07/12 04:08:23;;;;;;;18.40;16.57;;;16.00;99.90;;;;;;5055799;28;20859;-67
2021/07/12 04:10:49;;;;;;;15.90;14.40;;;16.00;99.90;;;;;;5048814;28;20481;-67
2021/07/12 04:13:15;;;;;;;16.97;15.20;;;16.00;99.90;;;;;;5048744;28;20254;-68
2021/07/12 04:15:40;;;;;;;16.83;14.67;;;16.00;99.90;;;;;;5048738;28;20371;-67
2021/07/12 04:18:06;;;;;;;16.40;14.73;;;16.10;99.90;;;;;;5048926;28;20966;-67
2021/07/12 04:20:33;;;;;;;15.10;13.70;;;16.10;99.90;;;;;;5048655;28;20247;-67
2021/07/12 04:22:59;;;;;;;16.60;14.90;;;16.10;99.90;;;;;;5048554;28;20403;-67
2021/07/12 04:25:26;;;;;;;16.63;15.20;;;16.10;99.90;;;;;;5050435;28;20442;-67
2021/07/12 04:27:52;;;;;;;16.60;15.27;;;16.10;99.90;;;;;;5047170;28;20428;-68
2021/07/12 04:30:18;;;;;;;16.80;15.10;;;16.10;99.90;;;;;;5043323;28;20413;-68
2021/07/12 04:32:44;;;;;;;18.60;16.80;;;16.10;99.90;;;;;;5055031;28;20208;-67
2021/07/12 04:35:12;;;;;;;18.13;16.33;;;16.20;99.90;;;;;;5053011;28;20401;-67
2021/07/12 04:37:37;;;;;;;18.00;16.30;;;16.20;99.90;;;;;;5044787;28;20608;-67
2021/07/12 04:40:04;;;;;;;20.07;17.97;;;16.30;99.90;;;;;;5044330;28;20444;-67
2021/07/12 04:42:30;;;;;;;17.97;16.27;;;16.30;99.90;;;;;;5044332;28;20259;-67
2021/07/12 04:44:56;;;;;;;18.70;17.00;;;16.30;99.90;;;;;;5055033;28;20747;-67
2021/07/12 04:47:23;;;;;;;18.10;16.40;;;16.40;99.90;;;;;;5055026;28;20828;-67
2021/07/12 04:49:48;;;;;;;18.87;16.97;;;16.40;99.90;;;;;;5048059;28;20410;-68
2021/07/12 04:52:14;;;;;;;16.80;15.20;;;16.50;99.90;;;;;;5054535;28;20390;-67
2021/07/12 04:54:39;;;;;;;17.23;15.57;;;16.50;99.90;;;;;;5052996;28;20177;-67
2021/07/12 04:57:05;;;;;;;17.57;16.00;;;16.50;99.90;;;;;;5043717;28;20233;-67
2021/07/12 04:59:37;;;;;;;25.83;16.20;;;16.60;99.90;;;;;;5040394;28;20663;-67
2021/07/12 05:02:04;;;;;;;19.27;17.00;;;16.70;99.90;;;;;;5036623;28;20267;-67
2021/07/12 05:04:29;;;;;;;17.20;15.40;;;16.70;99.90;;;;;;5034800;28;20457;-67
2021/07/12 05:06:55;;;;;;;16.53;15.00;;;16.80;99.90;;;;;;5034478;28;20487;-67
2021/07/12 05:09:20;;;;;;;16.47;14.93;;;16.80;99.90;;;;;;5036842;28;20692;-67
2021/07/12 05:11:47;;;;;;;16.13;14.43;;;16.90;99.90;;;;;;5039744;28;20596;-67
2021/07/12 05:14:13;;;;;;;17.37;15.73;;;16.90;99.90;;;;;;5043742;28;20213;-67
2021/07/12 05:16:39;;;;;;;16.67;15.10;;;17.00;99.90;;;;;;5038562;28;20419;-67
2021/07/12 05:19:05;;;;;;;17.80;16.00;;;17.00;99.90;;;;;;5041260;28;20466;-67
2021/07/12 05:21:30;;;;;;;16.80;15.30;;;17.10;99.90;;;;;;5034320;28;20389;-67
2021/07/12 05:23:56;;;;;;;17.73;15.93;;;17.20;99.90;;;;;;5034254;28;20209;-67
2021/07/12 05:26:24;;;;;;;17.90;16.30;;;17.20;99.90;;;;;;5043584;28;20177;-68
2021/07/12 05:28:50;;;;;;;17.87;16.27;;;17.30;99.90;;;;;;5047026;28;20265;-67
2021/07/12 05:31:16;;;;;;;17.00;15.43;;;17.40;99.90;;;;;;5043786;28;20505;-67
2021/07/12 05:33:42;;;;;;;15.47;14.07;;;17.40;99.90;;;;;;5035923;28;20202;-68
2021/07/12 05:36:07;;;;;;;17.33;15.57;;;17.50;99.90;;;;;;5034546;28;20646;-68
2021/07/12 05:38:33;;;;;;;15.87;14.30;;;17.60;99.90;;;;;;5052905;28;20723;-67
2021/07/12 05:40:59;;;;;;;16.20;14.67;;;17.70;99.90;;;;;;5034548;28;20178;-68
2021/07/12 05:43:24;;;;;;;18.23;16.33;;;17.70;99.90;;;;;;5046130;28;20241;-68
2021/07/12 05:45:50;;;;;;;16.80;15.20;;;17.80;99.90;;;;;;5049755;28;20646;-67
2021/07/12 05:48:16;;;;;;;16.30;14.70;;;17.90;99.90;;;;;;5033719;28;20219;-67
2021/07/12 05:50:41;;;;;;;16.50;15.00;;;18.00;99.90;;;;;;5048851;28;20180;-67
2021/07/12 05:53:07;;;;;;;17.00;15.30;;;18.00;99.90;;;;;;5048212;28;20213;-67
2021/07/12 05:55:33;;;;;;;15.87;14.40;;;18.20;99.90;;;;;;5040452;28;20180;-68
2021/07/12 05:57:58;;;;;;;16.00;14.50;;;18.20;99.90;;;;;;5034196;28;20190;-68
2021/07/12 06:00:25;;;;;;;15.33;13.77;;;18.30;99.90;;;;;;5040344;28;20249;-68
2021/07/12 06:02:50;;;;;;;15.43;13.50;;;18.40;99.90;;;;;;5035481;28;20180;-68
2021/07/12 06:05:16;;;;;;;14.23;12.93;;;18.40;99.90;;;;;;5046156;28;20512;-68
2021/07/12 06:07:44;;;;;;;14.47;13.07;;;18.50;99.90;;;;;;5042088;28;20541;-68
2021/07/12 06:10:10;;;;;;;14.20;12.77;;;18.60;99.90;;;;;;5047151;28;20242;-68
2021/07/12 06:12:36;;;;;;;16.00;12.30;;;18.70;99.90;;;;;;5039163;28;20474;-68
2021/07/12 06:15:03;;;;;;;13.10;11.80;;;18.80;99.90;;;;;;5035951;28;20515;-68
2021/07/12 06:17:29;;;;;;;11.80;10.60;;;18.90;99.90;;;;;;5039294;28;20400;-68
2021/07/12 06:19:54;;;;;;;12.20;11.07;;;19.00;99.90;;;;;;5032555;28;20829;-68
2021/07/12 06:22:20;;;;;;;11.83;10.67;;;19.10;99.90;;;;;;5035260;28;20191;-68
2021/07/12 06:24:46;;;;;;;14.27;12.77;;;19.20;99.90;;;;;;5038676;28;20190;-68
2021/07/12 06:27:11;;;;;;;13.07;11.80;;;19.30;99.90;;;;;;5035576;28;20278;-68
2021/07/12 06:29:37;;;;;;;13.87;12.50;;;19.30;99.90;;;;;;5037917;28;20374;-68
2021/07/12 06:32:03;;;;;;;12.30;11.10;;;19.40;99.90;;;;;;5035261;28;20288;-68
2021/07/12 06:34:28;;;;;;;12.23;10.37;;;19.50;99.90;;;;;;5032160;28;20254;-68
2021/07/12 06:36:54;;;;;;;12.80;10.80;;;19.60;99.90;;;;;;5039189;28;20172;-68
2021/07/12 06:39:19;;;;;;;11.17;10.10;;;19.70;99.90;;;;;;5040008;28;20234;-68
2021/07/12 06:41:45;;;;;;;12.60;11.50;;;19.80;99.90;;;;;;5041812;28;20176;-68
2021/07/12 06:44:11;;;;;;;11.63;10.43;;;19.90;99.90;;;;;;5037277;28;20234;-68
2021/07/12 06:46:36;;;;;;;12.93;11.70;;;20.00;99.90;;;;;;5034815;28;20176;-68
2021/07/12 06:49:03;;;;;;;11.83;10.60;;;20.10;99.90;;;;;;5035661;28;20533;-68
2021/07/12 06:51:28;;;;;;;12.37;10.90;;;20.20;99.90;;;;;;5036271;28;20177;-68
2021/07/12 06:53:54;;;;;;;12.00;10.83;;;20.30;99.90;;;;;;5035389;28;20465;-68
2021/07/12 06:56:20;;;;;;;9.90;9.00;;;20.40;99.90;;;;;;5033040;28;20226;-68
2021/07/12 06:58:46;;;;;;;9.00;8.20;;;20.50;99.90;;;;;;5032782;28;20443;-68
2021/07/12 07:01:11;;;;;;;7.17;6.50;;;20.60;99.90;;;;;;5028971;28;20181;-68
2021/07/12 07:03:37;;;;;;;8.63;7.73;;;20.70;99.90;;;;;;5034762;28;20192;-68
2021/07/12 07:06:03;;;;;;;8.67;7.80;;;20.80;99.90;;;;;;5032126;28;20264;-68
2021/07/12 07:08:28;;;;;;;7.03;6.40;;;20.90;99.90;;;;;;5033542;28;20657;-68
2021/07/12 07:10:54;;;;;;;6.70;6.10;;;21.00;99.90;;;;;;5024811;28;20181;-68
2021/07/12 07:13:19;;;;;;;7.40;6.80;;;21.00;99.90;;;;;;5029460;28;20204;-68
2021/07/12 07:15:45;;;;;;;7.40;6.70;;;21.10;99.90;;;;;;5032138;28;20192;-68
2021/07/12 07:18:11;;;;;;;7.60;7.00;;;21.20;99.90;;;;;;5028005;28;20661;-69
2021/07/12 07:20:37;;;;;;;6.90;6.23;;;21.30;99.90;;;;;;5045656;28;20180;-68
2021/07/12 07:23:03;;;;;;;7.50;6.80;;;21.30;99.90;;;;;;5039750;28;20234;-68
2021/07/12 07:25:28;;;;;;;7.50;6.90;;;21.40;99.90;;;;;;5036378;28;20172;-68
2021/07/12 07:27:54;;;;;;;6.80;6.20;;;21.50;99.90;;;;;;5029335;28;20514;-68
2021/07/12 07:30:20;;;;;;;6.23;5.73;;;21.60;99.90;;;;;;5033833;28;20298;-68
2021/07/12 07:32:46;;;;;;;6.93;6.23;;;21.80;99.90;;;;;;5029449;28;20205;-68
2021/07/12 07:35:12;;;;;;;5.90;5.30;;;22.10;99.90;;;;;;5036278;28;20432;-69
2021/07/12 07:37:38;;;;;;;4.97;4.50;;;22.80;99.90;;;;;;5032234;28;20180;-69
2021/07/12 07:40:06;;;;;;;4.50;4.10;;;23.90;99.90;;;;;;5034361;28;20435;-69
2021/07/12 07:42:32;;;;;;;6.80;4.53;;;25.30;99.90;;;;;;5037216;28;20449;-69
2021/07/12 07:45:00;;;;;;;5.03;4.57;;;26.40;99.90;;;;;;5037067;28;20466;-69
2021/07/12 07:47:27;;;;;;;4.40;4.00;;;27.50;99.90;;;;;;5037232;28;20471;-69
2021/07/12 07:49:52;;;;;;;4.40;3.70;;;28.50;97.80;;;;;;5038288;28;20442;-69
2021/07/12 07:52:18;;;;;;;3.63;3.33;;;29.60;93.30;;;;;;5037059;28;20797;-69
2021/07/12 07:54:44;;;;;;;4.30;3.70;;;30.50;90.50;;;;;;5042516;28;20574;-69
2021/07/12 07:57:09;;;;;;;3.57;3.27;;;31.00;83.70;;;;;;5037017;28;20182;-69
2021/07/12 07:59:35;;;;;;;3.70;2.67;;;31.80;76.60;;;;;;5039807;28;20693;-69
2021/07/12 08:02:01;;;;;;;3.93;3.53;;;32.40;70.10;;;;;;5041289;28;20272;-70
2021/07/12 08:04:26;;;;;;;3.30;3.03;;;33.00;66.60;;;;;;5040616;28;20194;-71
2021/07/12 08:06:52;;;;;;;3.20;3.00;;;33.30;61.60;;;;;;5050195;28;20195;-70
2021/07/12 08:09:18;;;;;;;2.70;2.50;;;33.50;60.00;;;;;;5042062;28;20180;-70
2021/07/12 08:11:46;;;;;;;2.50;1.77;;;33.40;60.60;;;;;;5038755;28;20553;-68
2021/07/12 08:14:12;;;;;;;2.63;2.43;;;33.00;59.00;;;;;;5036432;28;20466;-68
2021/07/12 08:16:37;;;;;;;2.90;2.40;;;32.70;57.60;;;;;;5040116;28;20431;-69
2021/07/12 08:19:03;;;;;;;2.23;2.13;;;31.90;61.00;;;;;;5040770;28;20188;-68
2021/07/12 08:21:29;;;;;;;2.73;2.53;;;31.50;58.30;;;;;;5041973;28;20184;-68
2021/07/12 08:23:54;;;;;;;2.50;2.40;;;30.80;58.70;;;;;;5042117;28;20207;-68
2021/07/12 08:26:20;;;;;;;2.93;2.63;;;30.00;62.00;;;;;;5039975;28;20211;-68
2021/07/12 08:28:46;;;;;;;2.30;2.10;;;30.20;63.60;;;;;;5038329;28;20242;-68
2021/07/12 08:31:12;;;;;;;2.30;2.20;;;30.90;64.40;;;;;;5037712;28;20176;-68
2021/07/12 08:33:39;;;;;;;2.43;2.30;;;31.20;61.50;;;;;;5035924;28;20839;-69
2021/07/12 08:36:05;;;;;;;2.50;2.30;;;31.50;60.60;;;;;;5042659;28;20173;-68
2021/07/12 08:38:31;;;;;;;2.10;2.00;;;31.80;59.10;;;;;;5039448;28;20514;-69
2021/07/12 08:40:57;;;;;;;2.30;1.83;;;32.30;57.70;;;;;;5038822;28;20435;-69
2021/07/12 08:43:23;;;;;;;2.43;2.23;;;33.20;59.20;;;;;;5038339;28;21010;-69
2021/07/12 08:45:49;;;;;;;1.93;1.67;;;34.50;56.80;;;;;;5038207;28;21013;-69
2021/07/12 08:48:15;;;;;;;1.87;1.77;;;35.50;51.00;;;;;;5035838;28;20426;-69
2021/07/12 08:50:42;;;;;;;2.00;1.90;;;36.80;49.60;;;;;;5033770;28;20206;-69
2021/07/12 08:53:08;;;;;;;1.97;1.87;;;37.50;45.60;;;;;;5041094;28;20549;-69
2021/07/12 08:55:34;;;;;;;1.97;1.87;;;37.00;45.00;;;;;;5038223;28;20431;-69
2021/07/12 08:58:03;;;;;;;1.40;1.30;;;36.10;46.70;;;;;;5037464;28;20507;-69
2021/07/12 09:00:53;;;;;;;2.37;2.17;;;35.00;45.70;;;;;;5027512;28;20689;-69
2021/07/12 09:03:36;;;;;;;2.63;2.53;;;34.60;51.70;;;;;;5033971;28;20785;-69
2021/07/12 09:06:21;;;;;;;2.43;2.00;;;34.60;50.40;;;;;;5034744;28;20438;-69
2021/07/12 09:14:07;;;;;;;2.23;1.60;;;34.60;48.30;;;;;;5057861;28;20683;-71
2021/07/12 09:16:55;;;;;;;1.60;1.50;;;37.30;40.90;;;;;;5046340;28;20444;-69
2021/07/12 09:22:08;;;;;;;3.57;1.90;;;38.30;39.00;;;;;;5076477;27;20538;-70
2021/07/12 09:27:20;;;;;;;1.83;1.73;;;38.60;39.70;;;;;;5052395;28;20531;-69
2021/07/12 09:29:49;;;;;;;1.73;1.63;;;38.10;38.10;;;;;;5028426;28;20434;-69
2021/07/12 09:32:18;;;;;;;1.47;1.40;;;37.80;39.60;;;;;;5025363;28;20446;-70
2021/07/12 09:34:47;;;;;;;2.00;1.90;;;37.60;40.70;;;;;;5027163;28;20423;-69
2021/07/12 09:37:17;;;;;;;1.70;1.60;;;37.40;41.30;;;;;;5029232;28;20214;-69
2021/07/12 09:39:45;;;;;;;1.90;1.80;;;37.10;41.60;;;;;;5029365;28;20275;-69
2021/07/12 09:42:17;;;;;;;1.73;1.63;;;37.00;40.90;;;;;;5021555;28;20179;-69
2021/07/12 09:44:48;;;;;;;2.10;2.00;;;37.00;41.40;;;;;;5029613;28;20671;-69
2021/07/12 09:47:19;;;;;;;1.63;1.53;;;36.80;40.20;;;;;;5027939;28;20243;-69
2021/07/12 09:49:46;;;;;;;1.80;1.70;;;35.90;41.80;;;;;;5037886;28;20176;-69
2021/07/12 09:52:15;;;;;;;1.77;1.67;;;35.40;43.90;;;;;;5024141;28;20636;-69
2021/07/12 09:54:42;;;;;;;3.90;1.60;;;35.40;43.90;;;;;;5028898;28;20184;-69
2021/07/12 09:57:12;;;;;;;1.90;1.80;;;34.60;43.40;;;;;;5020726;28;20501;-69
2021/07/12 09:59:56;;;;;;;2.10;2.00;;;34.50;46.00;;;;;;5019238;28;20439;-68
2021/07/12 10:02:24;;;;;;;2.00;1.90;;;34.30;47.60;;;;;;5023855;28;20470;-68
2021/07/12 10:04:56;;;;;;;3.17;1.77;;;34.00;48.30;;;;;;5027430;28;20474;-68
2021/07/12 10:07:22;;;;;;;2.00;1.90;;;33.80;44.50;;;;;;5012604;28;20473;-69
2021/07/12 10:09:48;;;;;;;1.43;1.33;;;33.30;45.30;;;;;;5016831;28;20430;-68
2021/07/12 10:12:15;;;;;;;2.10;2.00;;;33.10;46.40;;;;;;5022110;28;20427;-68
2021/07/12 10:14:41;;;;;;;1.50;1.40;;;33.00;46.50;;;;;;5022875;28;20427;-68
2021/07/12 10:17:09;;;;;;;2.10;1.90;;;32.60;46.50;;;;;;5030741;28;20837;-68
2021/07/12 10:19:36;;;;;;;1.60;1.50;;;32.20;47.40;;;;;;5029287;28;20239;-68
2021/07/12 10:22:03;;;;;;;2.17;2.03;;;31.70;48.30;;;;;;5020604;28;20423;-68
2021/07/12 10:24:36;;;;;;;1.87;1.77;;;31.30;51.50;;;;;;5030543;28;20457;-68
2021/07/12 10:27:03;;;;;;;2.10;2.00;;;31.00;51.40;;;;;;5033889;28;20877;-68
2021/07/12 10:29:37;;;;;;;1.93;1.80;;;30.90;50.50;;;;;;5029871;28;20461;-68
2021/07/12 10:32:07;;;;;;;2.43;2.20;;;30.70;49.50;;;;;;5028917;28;20479;-68
2021/07/12 10:34:39;;;;;;;2.60;2.40;;;30.50;51.60;;;;;;5024677;28;20424;-70
2021/07/12 10:37:14;;;;;;;1.83;1.73;;;30.30;49.90;;;;;;5013329;28;20444;-68
2021/07/12 10:40:04;;;;;;;2.30;2.20;;;30.10;52.20;;;;;;5005499;28;20439;-68
2021/07/12 10:42:53;;;;;;;4.43;2.00;;;29.70;53.10;;;;;;5015198;28;20474;-68
2021/07/12 10:48:08;;;;;;;4.30;1.90;;;29.50;51.90;;;;;;5046124;28;20572;-70
2021/07/12 11:01:16;;;;;;;2.30;2.10;;;29.30;53.60;;;;;;5041823;28;20653;-69
2021/07/12 11:03:45;;;;;;;2.57;2.37;;;28.50;54.30;;;;;;5045763;28;20419;-69
2021/07/12 11:16:46;;;;;;;2.73;2.53;;;27.60;57.10;;;;;;5119519;27;20683;-70
2021/07/12 11:19:31;;;;;;;2.50;2.30;;;27.40;56.70;;;;;;5120222;28;20486;-70
2021/07/12 11:25:08;;;;;;;2.50;2.30;;;27.00;57.30;;;;;;5056518;28;21412;-69
2021/07/12 11:27:36;;;;;;;2.27;2.07;;;27.00;58.20;;;;;;5053397;28;20429;-69
2021/07/12 11:30:29;;;;;;;2.20;2.10;;;27.10;57.40;;;;;;5055381;28;21037;-69
2021/07/12 11:32:55;;;;;;;2.37;2.17;;;27.00;58.40;;;;;;5063599;28;20410;-68
2021/07/12 11:35:20;;;;;;;2.50;2.30;;;26.80;57.80;;;;;;5051789;28;20437;-68
2021/07/12 11:37:46;;;;;;;2.60;2.40;;;26.80;59.30;;;;;;5056509;28;20279;-68
2021/07/12 11:40:13;;;;;;;3.90;3.60;;;26.70;57.60;;;;;;5052978;28;20179;-68
2021/07/12 11:42:40;;;;;;;2.60;2.40;;;26.80;58.20;;;;;;5056450;28;20176;-68
2021/07/12 11:45:08;;;;;;;2.27;2.17;;;27.00;60.40;;;;;;5054148;28;20433;-68
2021/07/12 11:50:16;;;;;;;2.20;2.07;;;27.00;57.80;;;;;;5125214;27;20758;-69
2021/07/12 11:52:46;;;;;;;2.00;1.90;;;26.90;58.50;;;;;;5103015;28;21025;-70
2021/07/12 11:57:51;;;;;;;2.47;2.27;;;26.80;58.00;;;;;;5048311;28;20542;-69
2021/07/12 12:00:22;;;;;;;2.20;2.00;;;26.70;61.30;;;;;;5033647;28;20534;-69
2021/07/12 12:02:59;;;;;;;2.63;2.43;;;26.70;58.90;;;;;;5024450;28;20515;-69
2021/07/12 12:05:26;;;;;;;2.03;1.93;;;26.80;61.10;;;;;;5017889;28;20424;-69
2021/07/12 12:07:57;;;;;;;2.43;2.23;;;26.90;59.40;;;;;;5027723;28;20932;-69
2021/07/12 12:10:25;;;;;;;1.93;1.83;;;26.80;59.40;;;;;;5023197;28;20904;-69
2021/07/12 12:12:59;;;;;;;2.70;2.50;;;26.90;60.60;;;;;;5021423;28;20470;-69
2021/07/12 12:23:25;;;;;;;2.43;2.23;;;27.20;59.50;;;;;;5070059;28;21207;-70
2021/07/12 12:28:51;;;;;;;2.60;2.40;;;27.20;59.90;;;;;;5067744;28;20546;-69
2021/07/12 12:36:42;;;;;;;25.03;5.03;;;27.00;61.40;;;;;;5056483;28;20670;-68
2021/07/12 12:39:12;;;;;;;2.70;2.50;;;26.90;60.60;;;;;;5026777;28;20423;-69
2021/07/12 12:41:47;;;;;;;1.87;1.77;;;27.00;63.10;;;;;;5032643;28;20419;-69
2021/07/12 12:44:15;;;;;;;2.07;1.97;;;27.00;61.50;;;;;;5035214;28;20410;-68
2021/07/12 12:46:48;;;;;;;3.10;2.30;;;27.10;67.10;;;;;;5026320;28;20430;-69
2021/07/12 12:51:57;;;;;;;2.10;2.00;;;27.30;62.80;;;;;;5063800;28;20554;-68
2021/07/12 12:57:08;;;;;;;2.47;2.27;;;27.40;63.00;;;;;;5122740;27;20586;-70
2021/07/12 12:59:36;;;;;;;2.40;2.20;;;27.50;65.30;;;;;;5094279;28;20466;-70
2021/07/12 13:04:56;;;;;;;3.10;2.90;;;27.50;62.10;;;;;;5061987;28;20528;-70
2021/07/12 13:07:27;;;;;;;2.70;2.50;;;27.40;64.60;;;;;;5052243;28;20442;-70
2021/07/12 13:10:15;;;;;;;2.40;2.30;;;27.20;61.60;;;;;;5060281;28;20551;-67
2021/07/12 13:12:51;;;;;;;2.57;2.37;;;27.20;65.50;;;;;;5045461;28;20598;-70
2021/07/12 13:15:21;;;;;;;2.60;2.40;;;27.20;64.70;;;;;;5051814;28;20762;-70
2021/07/12 13:17:50;;;;;;;3.00;2.70;;;27.30;65.30;;;;;;5048930;28;20417;-70
2021/07/12 13:20:22;;;;;;;3.00;2.80;;;27.20;63.10;;;;;;5048336;28;20425;-67
2021/07/12 13:22:51;;;;;;;4.33;4.00;;;27.20;63.30;;;;;;5056617;28;20467;-67
2021/07/12 13:25:23;;;;;;;7.60;4.40;;;27.20;68.70;;;;;;5057947;28;20955;-67
2021/07/12 13:27:54;;;;;;;4.20;3.80;;;27.10;63.90;;;;;;5053288;28;20942;-67
2021/07/12 13:30:25;;;;;;;2.87;2.67;;;27.10;65.40;;;;;;5053879;28;20926;-67
2021/07/12 13:32:52;;;;;;;2.47;2.27;;;27.00;64.90;;;;;;5053953;28;20501;-67
2021/07/12 13:35:22;;;;;;;2.70;2.50;;;26.90;66.80;;;;;;5044073;28;20425;-68
2021/07/12 13:37:51;;;;;;;2.80;2.60;;;26.90;66.70;;;;;;5048614;28;20901;-68
2021/07/12 13:40:18;;;;;;;3.47;2.80;;;26.70;66.90;;;;;;5049478;28;20494;-68
2021/07/12 13:42:44;;;;;;;2.80;2.53;;;26.60;66.40;;;;;;5060933;28;20453;-68
2021/07/12 13:45:10;;;;;;;2.97;2.50;;;26.50;67.20;;;;;;5053981;28;20419;-68
2021/07/12 13:47:37;;;;;;;6.70;2.30;;;26.50;69.10;;;;;;5055807;28;20415;-68
2021/07/12 13:50:06;;;;;;;2.53;2.27;;;26.50;72.00;;;;;;5050072;28;20424;-68
2021/07/12 13:52:31;;;;;;;4.50;2.90;;;26.50;71.30;;;;;;5060116;28;20498;-68
2021/07/12 13:54:57;;;;;;;3.73;3.00;;;26.50;71.90;;;;;;5062220;28;20517;-68
2021/07/12 13:57:23;;;;;;;3.10;2.47;;;26.50;77.50;;;;;;5040771;28;20168;-68
2021/07/12 13:59:50;;;;;;;3.03;2.80;;;26.60;77.90;;;;;;5043228;28;20211;-68
2021/07/12 14:02:17;;;;;;;3.00;2.70;;;26.60;73.30;;;;;;5047093;28;20176;-68
2021/07/12 14:04:44;;;;;;;2.77;2.57;;;26.60;73.50;;;;;;5066284;28;20414;-68
2021/07/12 14:07:11;;;;;;;2.50;2.30;;;26.50;71.50;;;;;;5048872;28;20399;-68
2021/07/12 14:09:38;;;;;;;2.57;2.37;;;26.40;71.20;;;;;;5045556;28;20503;-68
2021/07/12 14:12:04;;;;;;;3.33;2.57;;;26.20;71.80;;;;;;5045275;28;20419;-68